METAR Data
IDs: Format: Raw Decoded Include TAF

Data at: 0011 UTC 25 Apr 2019

METAR for:KDNS (Denison Muni, IA, US)
Text:KDNS 242355Z AUTO 23006KT 10SM CLR 23/01 A2977 RMK AO2
Temperature: 23.0°C ( 73°F)
Dewpoint: 1.0°C ( 34°F) [RH = 23%]
Pressure (altimeter):29.77 inches Hg (1008.2 mb)
Winds:from the SW (230 degrees) at 7 MPH (6 knots; 3.1 m/s)
Visibility:10 or more sm (16+ km)
Ceiling:at least 12,000 feet AGL
Clouds:sky clear below 12,000 feet AGL
QC Flag:automated observation with no human augmentation